Anguilla, MS

9:33 AM CDT on August 22, 2014 (GMT -0500)
Mid Delta Regional | Change Station
CLOSE
Current Station
Airport
Location: Greenville,
Elevation: 131 ft
Nearby Weather Stations

Elev 131 ft 33.48 °N, 90.99 °W | Updated 40 minutes ago

Clear
Clear
82 °F
Feels Like 89 °F
N
7
Wind Variable Wind from WSW

Today
High -- | Low -- °F
--% Chance of Precip.
Yesterday
High -- | Low -- °F
Precip. -- in
6:31 AM 7:40 PM
Waning Crescent, 8% visible
Pressure 30.11 in
Visibility 8.0 miles
Clouds Clear
Heat Index 89 °F
Dew Point 75 °F
Humidity 79%
Rainfall 0.00 in
Snow Depth Not available.
UV 3 out of 12
Pollen 8.90 out of 12
Air Quality Not available.
Flu Activity Not available.
METAR KGLH 221353Z AUTO 24006KT 8SM CLR 28/24 A3010 RMK AO2 SLP196 T02780239

More Conditions Fewer Conditions

Pressure 30.11 in
Visibility 8.0 miles
Clouds Clear
Heat Index 89 °F
Dew Point 75 °F
Humidity 79%
Rainfall 0.00 in
Snow Depth Not available.
UV 3 out of 12
Pollen 8.90 out of 12
Air Quality Not available.
Flu Activity Not available.
METAR KGLH 221353Z AUTO 24006KT 8SM CLR 28/24 A3010 RMK AO2 SLP196 T02780239

More Conditions Fewer Conditions

10-Day Weather Forecast

Almanac

Astronomy

Aug. 22, 2014 Rise Set
Actual Time 6:31 AM CDT 7:40 PM CDT
Civil Twilight 6:05 AM CDT 8:06 PM CDT
Nautical Twilight 5:34 AM CDT 8:36 PM CDT
Astronomical Twilight 5:03 AM CDT 9:08 PM CDT
Moon 3:57 AM CDT 5:46 PM CDT
Length of Visible Light 14h 00m
Length of Day
13h 09m
Tomorrow will be 1m 51s shorter.
Waning Crescent, 8% of the Moon is Illuminated
Today
Waning Crescent
Aug 25
New
Sep 2
First Quarter
Sep 8
Full
Sep 15
Last Quarter

Today's Extremes

State Highs State Lows

Community

WunderPhotos

Upload Photos

1,746,180 photos uploaded!

WunderBlogs® & News

By Dr. Jeff Masters
Director of Meteorology, Weather Underground
By Kari Strenfel
Meteorologist, Weather Underground
By Christopher C. Burt
Weather Historian, Weather Underground
August 22, 2014
August 22, 2014
August 22, 2014

Nearby

Snow Depth

Station Depth Elevation
No new snow has been reported.

Earthquake Activity

City Distance Mag. Time & Date
No recent earthquake activity has been reported nearby.
Minimum magnitude displayed is 2.5.

Coastal Water Temperatures

Place Temperature
No Stations Reporting

Nearby Weather Stations